createdAt,value
2023-03-21T00:01:25.976Z,73.59
2023-03-21T00:02:09.806Z,73.43
2023-03-21T00:04:10.852Z,73.8
2023-03-21T00:06:12.727Z,73.46
2023-03-21T00:08:13.986Z,72.53
2023-03-21T00:12:17.003Z,72.53
2023-03-21T00:14:18.210Z,72.65
2023-03-21T00:16:21.527Z,72.84
2023-03-21T00:18:20.994Z,73.46
2023-03-21T00:20:22.759Z,73.52
2023-03-21T00:22:23.937Z,72.23
2023-03-21T00:24:25.640Z,72.95
2023-03-21T00:26:26.951Z,71.72
2023-03-21T00:28:28.078Z,72.12
2023-03-21T00:30:29.478Z,71.51
2023-03-21T00:32:30.422Z,71.48
2023-03-21T00:34:36.600Z,71.71
2023-03-21T00:36:32.488Z,72.04
2023-03-21T00:38:33.377Z,72.04
2023-03-21T00:40:40.365Z,72.25
2023-03-21T00:42:36.386Z,72.84
2023-03-21T00:44:37.613Z,73.67
2023-03-21T00:46:51.504Z,75.02
2023-03-21T00:48:39.937Z,74.12
2023-03-21T00:50:41.860Z,74.6
2023-03-21T00:52:43.061Z,74.8
2023-03-21T00:54:44.576Z,74.75
2023-03-21T00:56:46.238Z,75.47
2023-03-21T01:00:49.265Z,75.37
2023-03-21T01:02:54.749Z,75.15
2023-03-21T01:04:51.805Z,75.21
2023-03-21T01:06:52.844Z,75.7
2023-03-21T01:10:56.345Z,74.73
2023-03-21T01:12:57.694Z,74.48
2023-03-21T01:14:59.556Z,75.06
2023-03-21T01:17:00.592Z,75.67
2023-03-21T01:19:03.385Z,74.52
2023-03-21T01:21:03.618Z,74.48
2023-03-21T01:23:05.495Z,74.72
2023-03-21T01:25:21.403Z,74.95
2023-03-21T01:27:08.837Z,73.78
2023-03-21T01:29:10.235Z,74.44
2023-03-21T01:31:12.141Z,74.27
2023-03-21T01:33:13.556Z,74.09
2023-03-21T01:35:14.972Z,74.57
2023-03-21T01:37:16.762Z,74.57
2023-03-21T01:39:18.666Z,74.55
2023-03-21T01:41:20.433Z,74.56
2023-03-21T01:43:21.688Z,74.54
2023-03-21T01:45:22.973Z,74.48
2023-03-21T01:47:24.356Z,74.05
2023-03-21T01:49:25.838Z,73.33
2023-03-21T01:53:28.721Z,73.07
2023-03-21T01:55:29.772Z,73.48
2023-03-21T01:57:40.339Z,73.75
2023-03-21T01:59:33.329Z,73.81
2023-03-21T02:01:34.712Z,73.98
2023-03-21T02:03:44.174Z,73.36
2023-03-21T02:05:37.493Z,73.52
2023-03-21T02:07:38.296Z,73.46
2023-03-21T02:09:39.265Z,73.51
2023-03-21T02:11:40.347Z,74.07
2023-03-21T02:13:41.533Z,74.03
2023-03-21T02:15:43.202Z,73.87
2023-03-21T02:17:44.255Z,73.83
2023-03-21T02:19:52.873Z,73.62
2023-03-21T02:21:47.010Z,74.24
2023-03-21T02:25:49.565Z,74.36
2023-03-21T02:27:50.513Z,74.54
2023-03-21T02:29:51.584Z,74.77
2023-03-21T02:31:54.623Z,75.12
2023-03-21T02:35:58.690Z,74.99
2023-03-21T02:38:05.374Z,74.98
2023-03-21T02:39:59.258Z,75.37
2023-03-21T02:42:01.226Z,75.39
2023-03-21T02:44:03.098Z,75.49
2023-03-21T02:46:04.571Z,75.97
2023-03-21T02:48:06.317Z,76.31
2023-03-21T02:50:07.123Z,76.17
2023-03-21T02:52:15.482Z,75.86
2023-03-21T02:54:28.066Z,75.55
2023-03-21T02:56:11.163Z,76.21
2023-03-21T02:58:13.542Z,75.75
2023-03-21T03:00:16.865Z,75.94
2023-03-21T03:02:15.356Z,75.08
2023-03-21T03:04:16.662Z,75.14
2023-03-21T03:06:18.124Z,75.98
2023-03-21T03:08:22.186Z,76.29
2023-03-21T03:10:30.115Z,76.06
2023-03-21T03:12:22.322Z,75.83
2023-03-21T03:14:36.931Z,75.6
2023-03-21T03:18:26.627Z,75.79
2023-03-21T03:20:27.654Z,75.54
2023-03-21T03:24:30.577Z,76.27
2023-03-21T03:26:32.382Z,77.15
2023-03-21T03:28:33.715Z,76.59
2023-03-21T03:30:42.198Z,76.25
2023-03-21T03:34:37.956Z,76.29
2023-03-21T03:36:39.704Z,76.49
2023-03-21T03:38:41.054Z,77.01
2023-03-21T03:40:42.698Z,78.02
2023-03-21T03:42:43.730Z,79.22
2023-03-21T03:44:45.627Z,79.57
2023-03-21T03:46:47.564Z,79.23
2023-03-21T03:48:49.436Z,78.78
2023-03-21T03:50:50.407Z,78.12
2023-03-21T03:52:56.488Z,78.91
2023-03-21T03:54:53.715Z,79.28
2023-03-21T03:56:54.952Z,79.55
2023-03-21T03:58:55.971Z,79.7
2023-03-21T04:00:56.934Z,80.03
2023-03-21T04:02:58.488Z,80.37
2023-03-21T04:04:59.843Z,80.69
2023-03-21T04:07:01.737Z,80.42
2023-03-21T04:09:07.860Z,80.56
2023-03-21T04:11:04.789Z,80.59
2023-03-21T04:13:06.243Z,80.66
2023-03-21T04:17:09.411Z,81.14
2023-03-21T04:19:10.468Z,81.19
2023-03-21T04:21:11.681Z,82.61
2023-03-21T04:23:13.652Z,82.86
2023-03-21T04:25:19.055Z,82.93
2023-03-21T04:27:16.491Z,83.24
2023-03-21T04:29:17.751Z,83.12
2023-03-21T04:31:25.397Z,83.48
2023-03-21T04:33:20.936Z,83.79
2023-03-21T04:35:22.442Z,83.86
2023-03-21T04:37:23.904Z,84.46
2023-03-21T04:39:25.493Z,84.86
2023-03-21T04:41:26.532Z,85.5
2023-03-21T04:43:27.738Z,85.58
2023-03-21T04:45:29.351Z,85.61
2023-03-21T04:47:30.255Z,85.98
2023-03-21T04:49:32.187Z,86.24
2023-03-21T04:51:34.058Z,86.42
2023-03-21T04:53:35.113Z,86.11
2023-03-21T04:55:36.751Z,86.19
2023-03-21T04:59:39.549Z,86.02
2023-03-21T05:01:40.685Z,86.07
2023-03-21T05:03:42.140Z,86.7
2023-03-21T05:05:51.769Z,87.21
2023-03-21T05:09:46.834Z,86.96
2023-03-21T05:11:48.722Z,86.62
2023-03-21T05:13:50.277Z,85.89
2023-03-21T05:15:52.080Z,86
2023-03-21T05:17:53.804Z,86.25
2023-03-21T05:19:55.177Z,86.31
2023-03-21T05:21:57.061Z,86.37
2023-03-21T05:23:58.100Z,86.62
2023-03-21T05:25:59.086Z,87.33
2023-03-21T05:28:00.773Z,87.44
2023-03-21T05:32:04.284Z,86.92
2023-03-21T05:34:05.650Z,86.92
2023-03-21T05:36:06.903Z,86.55
2023-03-21T05:38:08.826Z,86.74
2023-03-21T05:40:10.454Z,86.99
2023-03-21T05:42:12.169Z,87.23
2023-03-21T05:44:13.238Z,87.61
2023-03-21T05:46:14.401Z,87.56
2023-03-21T05:48:15.877Z,87.33
2023-03-21T05:50:16.769Z,87.08
2023-03-21T05:52:18.205Z,87.11
2023-03-21T05:54:19.380Z,86.97
2023-03-21T05:56:20.801Z,87
2023-03-21T05:58:22.282Z,87.71
2023-03-21T06:00:23.327Z,88.32
2023-03-21T06:02:25.170Z,88.59
2023-03-21T06:04:34.443Z,88.58
2023-03-21T06:06:27.546Z,88.52
2023-03-21T06:08:28.987Z,88.96
2023-03-21T06:10:30.348Z,89.21
2023-03-21T06:12:32.036Z,89.08
2023-03-21T06:14:33.881Z,89.21
2023-03-21T06:16:35.453Z,89.24
2023-03-21T06:18:37.168Z,89.36
2023-03-21T06:20:38.342Z,89.43
2023-03-21T06:24:41.487Z,89.75
2023-03-21T06:26:42.916Z,89.49
2023-03-21T06:28:44.295Z,88.31
2023-03-21T06:30:45.360Z,87.67
2023-03-21T06:32:46.769Z,87.5
2023-03-21T06:34:48.368Z,87.2
2023-03-21T06:36:49.523Z,87.42
2023-03-21T06:40:53.208Z,86.71
2023-03-21T06:42:54.485Z,85.38
2023-03-21T06:44:56.169Z,80.23
2023-03-21T06:46:57.550Z,77.81
2023-03-21T06:47:41.421Z,78.04
2023-03-21T06:49:42.603Z,79.26
2023-03-21T06:51:43.980Z,80.31
2023-03-21T06:53:45.658Z,79.37
2023-03-21T06:55:47.053Z,80.78
2023-03-21T06:57:48.637Z,80.34
2023-03-21T06:59:49.560Z,77.25
2023-03-21T07:01:51.302Z,78.12
2023-03-21T07:03:52.994Z,76.54
2023-03-21T07:05:54.221Z,74.12
2023-03-21T07:07:55.567Z,72.67
2023-03-21T07:09:57.192Z,72.08
2023-03-21T07:11:58.898Z,70.43
2023-03-21T07:14:00.743Z,70.44
2023-03-21T07:18:03.654Z,70.24
2023-03-21T07:20:04.634Z,71.53
2023-03-21T07:22:05.732Z,69.96
2023-03-21T07:24:06.959Z,69.39
2023-03-21T07:26:08.154Z,69.22
2023-03-21T07:28:09.013Z,69.8
2023-03-21T07:30:10.416Z,69.08
2023-03-21T07:32:12.228Z,70.81
2023-03-21T07:34:13.791Z,69.93
2023-03-21T07:36:14.968Z,67.41
2023-03-21T07:38:16.563Z,66.06
2023-03-21T07:40:18.248Z,65.64
2023-03-21T07:42:19.578Z,64.55
2023-03-21T07:44:21.181Z,65.95
2023-03-21T07:46:22.863Z,65.97
2023-03-21T07:48:24.330Z,67.27
2023-03-21T07:50:25.089Z,65.7
2023-03-21T07:52:26.232Z,67.25
2023-03-21T07:54:27.096Z,65.93
2023-03-21T07:56:28.132Z,66.33
2023-03-21T08:00:30.596Z,65.8
2023-03-21T08:02:31.478Z,65.9
2023-03-21T08:04:32.948Z,65.7
2023-03-21T08:06:33.873Z,63.73
2023-03-21T08:08:35.122Z,64.27
2023-03-21T08:10:36.337Z,66.63
2023-03-21T08:12:37.777Z,64
2023-03-21T08:14:39.160Z,63.42
2023-03-21T08:16:40.946Z,62.83
2023-03-21T08:18:42.191Z,64.5
2023-03-21T08:20:43.466Z,65.13
2023-03-21T08:22:44.745Z,65.8
2023-03-21T08:24:45.770Z,65.1
2023-03-21T08:26:47.142Z,63.96
2023-03-21T08:28:48.923Z,64.62
2023-03-21T08:30:50.391Z,64.31
2023-03-21T08:32:52.073Z,64.73
2023-03-21T08:34:53.166Z,61.42
2023-03-21T08:36:54.801Z,62.17
2023-03-21T08:38:55.639Z,62.67
2023-03-21T08:40:58.099Z,59.7
2023-03-21T08:42:57.385Z,60.79
2023-03-21T08:44:58.375Z,60.99
2023-03-21T08:46:59.512Z,60.89
2023-03-21T08:49:00.841Z,60.03
2023-03-21T08:51:02.040Z,58.69
2023-03-21T08:53:03.859Z,58.53
2023-03-21T08:55:05.331Z,58.73
2023-03-21T08:59:08.636Z,59.71
2023-03-21T09:01:09.869Z,55.44
2023-03-21T09:03:12.117Z,56.86
2023-03-21T09:05:13.652Z,55.85
2023-03-21T09:07:14.785Z,57.24
2023-03-21T09:09:15.807Z,56.69
2023-03-21T09:11:17.289Z,57.96
2023-03-21T09:13:18.810Z,57.22
2023-03-21T09:15:19.739Z,54.59
2023-03-21T09:17:21.303Z,56.26
2023-03-21T09:19:22.578Z,56.94
2023-03-21T09:21:23.970Z,53.85
2023-03-21T09:23:24.868Z,53.47
2023-03-21T09:25:25.769Z,55.88
2023-03-21T09:27:27.072Z,54.3
2023-03-21T09:29:28.174Z,53.88
2023-03-21T09:31:29.248Z,52
2023-03-21T09:33:30.548Z,55.23
2023-03-21T09:35:32.104Z,53.11
2023-03-21T09:37:33.190Z,54.61
2023-03-21T09:41:35.932Z,52.37
2023-03-21T09:43:36.835Z,53.94
2023-03-21T09:45:38.898Z,54.21
2023-03-21T09:47:41.230Z,56.89
2023-03-21T09:49:42.494Z,54.79
2023-03-21T09:51:43.470Z,55.25
2023-03-21T09:53:44.705Z,55.26
2023-03-21T09:55:46.158Z,52.82
2023-03-21T09:57:47.870Z,53.74
2023-03-21T09:59:49.189Z,53.19
2023-03-21T10:01:50.007Z,52.19
2023-03-21T10:03:51.130Z,53.11
2023-03-21T10:05:52.420Z,52.97
2023-03-21T10:07:53.722Z,53.99
2023-03-21T10:09:55.124Z,53.07
2023-03-21T10:11:56.016Z,53.48
2023-03-21T10:13:57.365Z,54.46
2023-03-21T10:15:59.202Z,54.75
2023-03-21T10:18:00.904Z,54.38
2023-03-21T10:20:02.586Z,54.17
2023-03-21T10:24:05.093Z,55.66
2023-03-21T10:26:06.385Z,52.89
2023-03-21T10:30:09.100Z,54.35
2023-03-21T10:32:10.408Z,52.8
2023-03-21T10:34:11.210Z,53.29
2023-03-21T10:36:12.662Z,57.71
2023-03-21T10:40:14.371Z,52.33
2023-03-21T10:42:16.026Z,52
2023-03-21T10:44:16.894Z,52.49
2023-03-21T10:46:18.720Z,53.01
2023-03-21T10:48:19.949Z,51.85
2023-03-21T10:50:20.803Z,54.02
2023-03-21T10:52:21.879Z,53.51
2023-03-21T10:54:23.259Z,53.64
2023-03-21T10:56:24.985Z,54.26
2023-03-21T10:58:26.718Z,54.38
2023-03-21T11:00:28.019Z,54.78
2023-03-21T11:02:28.918Z,53.73
2023-03-21T11:04:30.681Z,53.24
2023-03-21T11:06:32.178Z,55.17
2023-03-21T11:08:33.503Z,53.22
2023-03-21T11:10:34.849Z,53
2023-03-21T11:12:36.001Z,54.79
2023-03-21T11:14:36.974Z,53.17
2023-03-21T11:16:39.705Z,52.11
2023-03-21T11:18:39.122Z,53.01
2023-03-21T11:20:48.936Z,54.96
2023-03-21T11:22:42.402Z,51.95
2023-03-21T11:24:44.103Z,52.64
2023-03-21T11:26:45.173Z,51.92
2023-03-21T11:28:46.597Z,52.71
2023-03-21T11:30:47.906Z,51.81
2023-03-21T11:32:49.693Z,53.12
2023-03-21T11:34:50.839Z,52.21
2023-03-21T11:36:51.694Z,53.98
2023-03-21T11:38:52.998Z,53.59
2023-03-21T11:40:54.177Z,52.85
2023-03-21T11:42:55.824Z,53.29
2023-03-21T11:44:57.454Z,52.53
2023-03-21T11:46:58.329Z,52.98
2023-03-21T11:48:59.972Z,52.46
2023-03-21T11:51:01.375Z,52.48
2023-03-21T11:55:04.677Z,53.55
2023-03-21T11:57:06.029Z,53.83
2023-03-21T11:59:08.628Z,55.08
2023-03-21T12:01:10.280Z,53.32
2023-03-21T12:03:12.602Z,54.74
2023-03-21T12:05:14.371Z,55.66
2023-03-21T12:07:16.032Z,55.04
2023-03-21T12:09:18.220Z,54.94
2023-03-21T12:11:19.060Z,55.07
2023-03-21T12:13:19.961Z,55.51
2023-03-21T12:15:21.943Z,56.5
2023-03-21T12:17:23.505Z,55.44
2023-03-21T12:19:24.899Z,57.45
2023-03-21T12:21:26.497Z,56.06
2023-03-21T12:23:28.139Z,57.06
2023-03-21T12:25:29.149Z,56.92
2023-03-21T12:27:30.585Z,56.53
2023-03-21T12:29:31.685Z,57.02
2023-03-21T12:31:32.860Z,57.56
2023-03-21T12:33:33.809Z,57.83
2023-03-21T12:37:36.696Z,57.69
2023-03-21T12:39:38.279Z,57.51
2023-03-21T12:41:39.985Z,57.85
2023-03-21T12:43:41.708Z,58.23
2023-03-21T12:45:46.934Z,57.94
2023-03-21T12:47:44.724Z,56.8
2023-03-21T12:49:46.426Z,58.36
2023-03-21T12:51:47.631Z,58.98
2023-03-21T12:53:48.520Z,58.41
2023-03-21T12:55:50.285Z,57.61
2023-03-21T12:57:57.352Z,57.31
2023-03-21T12:59:53.993Z,57.53
2023-03-21T13:01:55.138Z,57.95
2023-03-21T13:03:56.386Z,57.12
2023-03-21T13:05:58.048Z,57.67
2023-03-21T13:07:59.094Z,56.94
2023-03-21T13:10:00.857Z,58.03
2023-03-21T13:12:02.569Z,57.86
2023-03-21T13:14:03.421Z,57.45
2023-03-21T13:16:05.075Z,57.77
2023-03-21T13:20:07.920Z,56.93
2023-03-21T13:22:10.071Z,56.91
2023-03-21T13:24:11.830Z,58.01
2023-03-21T13:26:12.847Z,58.68
2023-03-21T13:28:14.037Z,58
2023-03-21T13:30:15.100Z,57.69
2023-03-21T13:32:16.835Z,58.16
2023-03-21T13:35:01.339Z,58.57
2023-03-21T13:37:03.106Z,58.69
2023-03-21T13:39:04.661Z,58.16
2023-03-21T13:41:06.199Z,59.16
2023-03-21T13:43:07.408Z,58.64
2023-03-21T13:45:08.714Z,58.3
2023-03-21T13:47:09.988Z,58.71
2023-03-21T13:49:11.526Z,58.7
2023-03-21T13:51:13.310Z,58.36
2023-03-21T13:53:15.238Z,60.1
2023-03-21T13:57:18.563Z,58.88
2023-03-21T13:59:19.599Z,59.36
2023-03-21T14:01:20.799Z,58.66
2023-03-21T14:03:22.479Z,60.76
2023-03-21T14:05:23.542Z,59.49
2023-03-21T14:07:25.016Z,59.39
2023-03-21T14:09:27.111Z,60.23
2023-03-21T14:11:28.082Z,60.22
2023-03-21T14:13:29.764Z,61.12
2023-03-21T14:15:30.512Z,60.26
2023-03-21T14:17:32.028Z,62.28
2023-03-21T14:19:33.576Z,61.8
2023-03-21T14:21:35.008Z,61.22
2023-03-21T14:23:36.646Z,62.12
2023-03-21T14:25:44.674Z,61.67
2023-03-21T14:27:38.925Z,62.14
2023-03-21T14:29:40.223Z,62.39
2023-03-21T14:31:41.786Z,62.22
2023-03-21T14:33:43.435Z,61.56
2023-03-21T14:35:44.845Z,61.68
2023-03-21T14:37:45.694Z,63.4
2023-03-21T14:39:46.757Z,63.02
2023-03-21T14:41:47.677Z,64.8
2023-03-21T14:43:48.581Z,65.01
2023-03-21T14:45:50.268Z,66.9
2023-03-21T14:47:51.766Z,67.27
2023-03-21T14:49:53.479Z,67.13
2023-03-21T14:51:54.465Z,69.3
2023-03-21T14:55:57.778Z,69.61
2023-03-21T14:57:58.905Z,68.51
2023-03-21T15:00:00.535Z,73.38
2023-03-21T15:02:02.435Z,71.11
2023-03-21T15:04:03.489Z,71.57
2023-03-21T15:06:04.707Z,71.42
2023-03-21T15:08:05.986Z,72.62
2023-03-21T15:10:07.399Z,71.76
2023-03-21T15:12:08.402Z,70.13
2023-03-21T15:14:10.205Z,71.75
2023-03-21T15:16:11.408Z,72.74
2023-03-21T15:18:12.542Z,73.67
2023-03-21T15:20:14.373Z,70.18
2023-03-21T15:22:15.787Z,71.77
2023-03-21T15:24:17.022Z,72.08
2023-03-21T15:26:18.467Z,71.09
2023-03-21T15:28:19.653Z,71.19
2023-03-21T15:30:21.055Z,71.6
2023-03-21T15:32:21.836Z,70
2023-03-21T15:34:23.152Z,69.82
2023-03-21T15:38:26.575Z,70.84
2023-03-21T15:40:27.594Z,71.55
2023-03-21T15:42:29.130Z,71.58
2023-03-21T15:44:30.120Z,70.95
2023-03-21T15:46:31.238Z,71.04
2023-03-21T15:48:32.494Z,70.28
2023-03-21T15:50:34.062Z,70.86
2023-03-21T15:52:35.594Z,71.42
2023-03-21T15:54:37.337Z,70.49
2023-03-21T15:56:47.286Z,71.16
2023-03-21T15:58:39.873Z,70.7
2023-03-21T16:00:41.676Z,69.87
2023-03-21T16:02:42.631Z,70.86
2023-03-21T16:04:44.044Z,70.46
2023-03-21T16:06:45.359Z,69.76
2023-03-21T16:08:47.358Z,70.09
2023-03-21T16:10:48.720Z,70.09
2023-03-21T16:12:50.173Z,68.73
2023-03-21T16:14:52.029Z,68.64
2023-03-21T16:16:53.335Z,68.34
2023-03-21T16:20:56.700Z,68.84
2023-03-21T16:22:58.520Z,69.53
2023-03-21T16:27:01.109Z,70.25
2023-03-21T16:29:02.441Z,70.56
2023-03-21T16:31:03.498Z,70.26
2023-03-21T16:33:05.270Z,70.26
2023-03-21T16:37:07.386Z,69.36
2023-03-21T16:39:08.763Z,70.68
2023-03-21T16:41:09.964Z,70.98
2023-03-21T16:43:11.225Z,70.25
2023-03-21T16:45:12.333Z,70.5
2023-03-21T16:47:13.264Z,70.59
2023-03-21T16:49:15.048Z,71
2023-03-21T16:51:16.321Z,70.59
2023-03-21T16:53:17.867Z,71.65
2023-03-21T16:55:19.267Z,73.95
2023-03-21T16:57:20.856Z,74.4
2023-03-21T16:59:22.265Z,76.36
2023-03-21T17:01:23.985Z,75.65
2023-03-21T17:03:25.051Z,75.09
2023-03-21T17:05:26.774Z,75.9
2023-03-21T17:07:27.817Z,76.55
2023-03-21T17:09:29.194Z,75.41
2023-03-21T17:11:30.019Z,75.91
2023-03-21T17:13:31.875Z,76.83
2023-03-21T17:15:33.143Z,75.71
2023-03-21T17:19:36.014Z,76.49
2023-03-21T17:21:37.166Z,77.84
2023-03-21T17:23:38.328Z,78.27
2023-03-21T17:25:39.878Z,78.27
2023-03-21T17:27:41.067Z,78.24
2023-03-21T17:29:42.649Z,78.42
2023-03-21T17:31:44.053Z,78.2
2023-03-21T17:33:45.937Z,79.64
2023-03-21T17:35:47.141Z,78.7
2023-03-21T17:37:48.544Z,78.84
2023-03-21T17:39:50.079Z,78.65
2023-03-21T17:41:51.286Z,78.95
2023-03-21T17:43:53.094Z,79.06
2023-03-21T17:45:54.228Z,79.88
2023-03-21T17:47:55.998Z,80.12
2023-03-21T17:49:57.467Z,81.53
2023-03-21T17:51:58.672Z,80.37
2023-03-21T17:54:00.559Z,80.08
2023-03-21T17:56:01.480Z,80.93
2023-03-21T17:58:03.279Z,81.65
2023-03-21T18:02:06.408Z,84.41
2023-03-21T18:04:07.615Z,84.8
2023-03-21T18:06:08.946Z,84.42
2023-03-21T18:08:12.262Z,84.6
2023-03-21T18:10:12.205Z,84.77
2023-03-21T18:12:13.126Z,85.73
2023-03-21T18:14:17.965Z,83.1
2023-03-21T18:16:15.943Z,83.73
2023-03-21T18:18:17.148Z,84.14
2023-03-21T18:20:19.874Z,84.56
2023-03-21T18:22:20.707Z,84.72
2023-03-21T18:24:22.494Z,85.01
2023-03-21T18:26:24.154Z,84.87
2023-03-21T18:28:25.646Z,85.64
2023-03-21T18:30:47.557Z,85.2
2023-03-21T18:34:30.188Z,87.5
2023-03-21T18:36:31.290Z,88.11
2023-03-21T18:38:32.276Z,87.84
2023-03-21T18:40:34.142Z,88.05
2023-03-21T18:44:37.086Z,85.33
2023-03-21T18:46:38.160Z,82.81
2023-03-21T18:50:41.208Z,79.96
2023-03-21T18:52:42.624Z,78.29
2023-03-21T18:54:44.379Z,79.33
2023-03-21T18:57:27.633Z,81.04
2023-03-21T19:00:47.864Z,85.02
2023-03-21T19:02:50.740Z,83.5
2023-03-21T19:04:51.331Z,83
2023-03-21T19:06:52.968Z,81.22
2023-03-21T19:08:54.071Z,79.85
2023-03-21T19:10:59.507Z,79.38
2023-03-21T19:12:57.471Z,82.33
2023-03-21T19:14:58.881Z,84.53
2023-03-21T19:19:01.724Z,86.54
2023-03-21T19:21:03.095Z,87.28
2023-03-21T19:23:05.416Z,87.85
2023-03-21T19:25:07.209Z,88.06
2023-03-21T19:27:07.783Z,87.85
2023-03-21T19:29:09.318Z,85.65
2023-03-21T19:33:12.158Z,88.86
2023-03-21T19:35:13.676Z,88.63
2023-03-21T19:37:15.429Z,88.05
2023-03-21T19:39:16.462Z,86.71
2023-03-21T19:43:32.076Z,87.38
2023-03-21T19:45:20.972Z,87.63
2023-03-21T19:47:22.618Z,87.11
2023-03-21T19:49:31.699Z,83.04
2023-03-21T19:51:29.019Z,81.41
2023-03-21T19:53:26.651Z,84.9
2023-03-21T19:55:28.411Z,85.76
2023-03-21T19:57:29.676Z,85.12
2023-03-21T19:59:31.459Z,85.09
2023-03-21T20:01:33.413Z,85.26
2023-03-21T20:03:35.016Z,85.63
2023-03-21T20:05:35.928Z,86.89
2023-03-21T20:07:37.598Z,84.95
2023-03-21T20:09:51.059Z,87.72
2023-03-21T20:11:40.517Z,88.4
2023-03-21T20:13:41.972Z,88.33
2023-03-21T20:15:48.000Z,88.34
2023-03-21T20:17:45.424Z,87.51
2023-03-21T20:20:30.543Z,86.81
2023-03-21T20:22:58.770Z,86.47
2023-03-21T20:24:33.220Z,86.05
2023-03-21T20:26:34.478Z,85.79
2023-03-21T20:28:37.907Z,85.88
2023-03-21T20:30:38.067Z,86.24
2023-03-21T20:32:39.566Z,86.22
2023-03-21T20:34:41.193Z,86.22
2023-03-21T20:36:44.082Z,86.25
2023-03-21T20:38:44.474Z,86.16
2023-03-21T20:40:46.306Z,85.98
2023-03-21T20:42:48.787Z,86.95
2023-03-21T20:44:58.565Z,86.49
2023-03-21T20:46:50.712Z,86.7
2023-03-21T20:48:52.354Z,86.46
2023-03-21T20:50:58.873Z,86.16
2023-03-21T20:53:06.244Z,86.07
2023-03-21T20:54:56.731Z,85.83
2023-03-21T20:56:58.184Z,85.42
2023-03-21T20:59:12.086Z,85.62
2023-03-21T21:03:03.069Z,86.21
2023-03-21T21:05:24.479Z,86.17
2023-03-21T21:07:06.353Z,85.88
2023-03-21T21:09:07.388Z,85.71
2023-03-21T21:11:56.830Z,85.67
2023-03-21T21:13:09.360Z,85.37
2023-03-21T21:15:10.723Z,85.56
2023-03-21T21:17:40.581Z,85.76
2023-03-21T21:19:14.418Z,85.25
2023-03-21T21:21:16.286Z,84.86
2023-03-21T21:23:17.424Z,85.4
2023-03-21T21:25:18.455Z,85.56
2023-03-21T21:27:20.327Z,85.87
2023-03-21T21:29:22.140Z,86.16
2023-03-21T21:31:32.691Z,86.42
2023-03-21T21:35:26.716Z,87.1
2023-03-21T21:37:28.464Z,87.36
2023-03-21T21:39:29.937Z,88.05
2023-03-21T21:41:31.499Z,89.14
2023-03-21T21:45:35.001Z,89.61
2023-03-21T21:47:36.114Z,90.27
2023-03-21T21:49:37.337Z,90.47
2023-03-21T21:51:39.205Z,90.2
2023-03-21T21:53:41.095Z,90.09
2023-03-21T21:55:42.437Z,89.7
2023-03-21T21:57:43.521Z,89.4
2023-03-21T21:59:44.639Z,90.09
2023-03-21T22:01:46.097Z,90.62
2023-03-21T22:03:47.668Z,90.48
2023-03-21T22:05:48.928Z,91.17
2023-03-21T22:07:50.084Z,90.95
2023-03-21T22:09:51.248Z,89.93
2023-03-21T22:11:53.046Z,89.31
2023-03-21T22:13:54.133Z,89.17
2023-03-21T22:15:55.358Z,88.72
2023-03-21T22:17:57.004Z,88.64
2023-03-21T22:20:05.399Z,88.6
2023-03-21T22:22:00.293Z,88.88
2023-03-21T22:24:01.894Z,89.35
2023-03-21T22:26:03.163Z,89.32
2023-03-21T22:28:04.244Z,89.9
2023-03-21T22:30:05.930Z,91.16
2023-03-21T22:34:08.448Z,90.37
2023-03-21T22:36:09.727Z,90.37
2023-03-21T22:38:11.439Z,90.23
2023-03-21T22:40:12.828Z,90.95
2023-03-21T22:44:16.020Z,91.59
2023-03-21T22:46:17.579Z,91.43
2023-03-21T22:48:19.164Z,91.11
2023-03-21T22:50:20.706Z,90.8
2023-03-21T22:52:22.475Z,90.62
2023-03-21T22:54:24.275Z,90.53
2023-03-21T22:56:26.174Z,90.69
2023-03-21T22:58:27.860Z,90.68
2023-03-21T23:00:29.682Z,90.91
2023-03-21T23:02:30.667Z,91.1
2023-03-21T23:04:31.758Z,91.67
2023-03-21T23:06:32.893Z,91.91
2023-03-21T23:08:33.819Z,92.01
2023-03-21T23:10:35.638Z,91.67
2023-03-21T23:12:36.609Z,91.61
2023-03-21T23:14:37.830Z,91.67
2023-03-21T23:16:39.248Z,92.28
2023-03-21T23:18:40.636Z,92.71
2023-03-21T23:20:42.563Z,92.65
2023-03-21T23:22:43.810Z,92.84
2023-03-21T23:26:45.868Z,92.88
2023-03-21T23:28:46.983Z,92.97
2023-03-21T23:30:48.074Z,92.77
2023-03-21T23:32:49.138Z,92.67
2023-03-21T23:34:50.821Z,92.69
2023-03-21T23:36:52.169Z,93.06
2023-03-21T23:38:53.932Z,93.31
2023-03-21T23:42:56.742Z,92.71
2023-03-21T23:44:58.316Z,92.5
2023-03-21T23:46:59.580Z,92.52
2023-03-21T23:49:00.739Z,92.52
2023-03-21T23:51:01.985Z,92.49
2023-03-21T23:53:03.291Z,92.43
2023-03-21T23:55:04.582Z,92.38
2023-03-21T23:57:06.139Z,92.76
2023-03-21T23:59:07.747Z,93.38
